Carpentersville, Illinois
Current Conditions -  °F | °C
As of 9:52 AM on Thursday 29 Jan 2015 (Local Time) from KDPA Reporting Station
Light Rain Light Rain  
Wind Chill: 22°   Ceiling: 1700
Heat Index: 34°   Visibility: 5mi
Dew Point: 27°   Wind: 21mph
Humidity: 75%   Direction: 320°NW
Pressure: 29.88"   Gusts: NA
Location:  42.12°N, 88.26°W
Report Text: KDPA 291552Z 32018KT 5SM -RA OVC017 01/M03 A2988 RMK AO2 PK WND 34027/1504 SLP125 P0000 T00111028
Loading
Personal Weather Stations






























Interactive Weather Map New forecast layout! Learn more

10-Day Weather Forecast

Advertisements
Track Severe Weather on mobile